Terminal Aerodrome Forecast
Issued by NWS

Home | Current Version | Previous Version | Text Only | Print | Product List | Glossary On
Versions: 1 2 3 4 5 6 7 8 9 10 11 12 13 14 15 16 17 18 19
785
FTUS42 KMLB 231136
TAFLEE
TAF
KLEE 231136Z 2312/2412 17008KT P6SM VCSH BKN012
      TEMPO 2312/2314 BKN008 OVC012
     FM231400 18009KT P6SM VCSH SCT020 BKN050
     FM231700 21008KT P6SM VCTS SCT030CB BKN050
      TEMPO 2317/2321 2SM TSRA BKN025CB
     FM240000 20006KT P6SM VCSH SCT030 BKN080
     FM240800 25004KT 5SM BR BKN006=

USA.gov is the U.S. government's official web portal to all federal, state and local government web resources and services.